createdAt,value
2018-09-16T00:29:44.452Z,1.7
2018-09-16T00:40:38.772Z,2.3
2018-09-16T00:51:19.356Z,2.2
2018-09-16T01:13:06.527Z,2.6
2018-09-16T01:24:33.987Z,3.3
2018-09-16T01:45:50.244Z,2.0
2018-09-16T02:08:21.704Z,3.3
2018-09-16T02:18:36.084Z,2.0
2018-09-16T02:29:24.397Z,2.1
2018-09-16T02:40:12.345Z,2.5
2018-09-16T03:01:31.911Z,2.0
2018-09-16T03:12:04.388Z,2.3
2018-09-16T03:23:50.605Z,5.2
2018-09-16T03:34:02.200Z,2.6
2018-09-16T03:45:37.869Z,4.4
2018-09-16T03:57:17.687Z,3.6
2018-09-16T04:18:56.312Z,5.9
2018-09-16T04:30:16.376Z,2.4
2018-09-16T05:03:40.829Z,6.0
2018-09-16T05:15:07.893Z,4.5
2018-09-16T05:26:37.462Z,5.2
2018-09-16T05:37:22.178Z,4.4
2018-09-16T05:49:12.883Z,6.4
2018-09-16T06:00:08.474Z,7.0
2018-09-16T06:10:20.565Z,5.9
2018-09-16T06:20:35.972Z,7.0
2018-09-16T06:31:22.151Z,13.8
2018-09-16T06:42:08.360Z,18.9
2018-09-16T06:52:38.670Z,16.5
2018-09-16T07:02:52.820Z,14.8
2018-09-16T07:14:59.199Z,12.4
2018-09-16T07:25:13.376Z,4.5
2018-09-16T07:35:28.129Z,5.4
2018-09-16T07:45:41.617Z,3.6
2018-09-16T07:55:56.205Z,4.1
2018-09-16T08:06:41.359Z,3.1
2018-09-16T08:17:26.667Z,3.1
2018-09-16T08:27:56.692Z,3.4
2018-09-16T08:38:10.991Z,2.7
2018-09-16T08:49:07.275Z,1.7
2018-09-16T08:59:52.582Z,2.5
2018-09-16T09:10:38.271Z,1.8
2018-09-16T09:21:24.099Z,1.5
2018-09-16T09:32:09.910Z,1.3
2018-09-16T09:42:24.114Z,1.7
2018-09-16T09:52:36.007Z,1.1
2018-09-16T10:02:51.199Z,1.5
2018-09-16T10:13:45.427Z,1.0
2018-09-16T10:24:03.587Z,1.2
2018-09-16T10:34:16.181Z,1.4
2018-09-16T10:44:29.559Z,1.4
2018-09-16T10:55:15.271Z,1.4
2018-09-16T11:16:26.302Z,1.1
2018-09-16T11:27:12.664Z,1.4
2018-09-16T11:38:02.151Z,1.3
2018-09-16T11:48:48.320Z,0.9
2018-09-16T11:59:38.174Z,1.8
2018-09-16T12:10:25.832Z,0.8
2018-09-16T12:21:11.655Z,0.8
2018-09-16T12:31:24.399Z,1.3
2018-09-16T12:41:37.099Z,0.6
2018-09-16T12:51:51.026Z,0.7
2018-09-16T13:12:50.438Z,1.0
2018-09-16T13:23:04.383Z,1.2
2018-09-16T13:33:50.316Z,0.8
2018-09-16T13:44:23.310Z,1.5
2018-09-16T13:54:38.303Z,1.2
2018-09-16T14:04:52.789Z,1.0
2018-09-16T14:15:04.317Z,1.3
2018-09-16T14:25:50.144Z,0.8
2018-09-16T14:46:24.475Z,0.7
2018-09-16T15:07:00.430Z,1.1
2018-09-16T15:17:49.106Z,1.3
2018-09-16T15:28:38.144Z,1.5
2018-09-16T15:39:05.759Z,1.2
2018-09-16T15:50:22.285Z,1.1
2018-09-16T16:04:37.099Z,1.1
2018-09-16T16:15:22.820Z,1.0
2018-09-16T16:25:57.703Z,1.2
2018-09-16T16:36:12.337Z,0.9
2018-09-16T16:46:27.572Z,1.3
2018-09-16T16:56:43.046Z,1.1
2018-09-16T17:06:57.118Z,0.9
2018-09-16T17:18:05.632Z,1.4
2018-09-16T17:29:04.096Z,1.4
2018-09-16T17:39:52.379Z,1.8
2018-09-16T17:50:06.419Z,1.0
2018-09-16T18:01:26.613Z,1.4
2018-09-16T18:12:27.985Z,1.1
2018-09-16T18:23:46.436Z,0.8
2018-09-16T18:34:18.193Z,0.9
2018-09-16T18:45:28.265Z,1.6
2018-09-16T18:55:56.996Z,1.8
2018-09-16T19:06:28.827Z,1.3
2018-09-16T19:17:15.204Z,2.5
2018-09-16T19:27:59.062Z,1.9
2018-09-16T19:38:13.158Z,1.2
2018-09-16T19:48:32.406Z,1.2
2018-09-16T19:58:46.911Z,1.3
2018-09-16T20:09:02.385Z,1.6
2018-09-16T20:19:16.645Z,1.6
2018-09-16T20:29:30.766Z,2.1
2018-09-16T20:40:16.566Z,2.4
2018-09-16T20:51:25.637Z,3.0
2018-09-16T21:01:41.325Z,2.4
2018-09-16T21:11:55.119Z,2.3
2018-09-16T21:22:10.267Z,1.9
2018-09-16T21:32:24.138Z,1.5
2018-09-16T21:42:38.695Z,1.9
2018-09-16T21:52:53.356Z,2.2
2018-09-16T22:03:07.016Z,2.1
2018-09-16T22:13:52.791Z,1.8
2018-09-16T22:24:20.867Z,1.3
2018-09-16T22:35:22.771Z,2.1
2018-09-16T22:46:14.007Z,2.9
2018-09-16T22:56:25.764Z,1.8
2018-09-16T23:06:40.207Z,1.2
2018-09-16T23:16:53.975Z,1.5
2018-09-16T23:27:08.611Z,2.1
2018-09-16T23:38:10.037Z,1.6
2018-09-16T23:48:24.136Z,1.6
2018-09-16T23:58:37.882Z,1.9
